New Braunfels, TX

2:30 PM CDT on September 16, 2014 (GMT -0500)
New Braunfels Municipal | Change Station
CLOSE
Current Station
Airport
Location: New Braunfels,
Elevation: 643 ft
Nearby Weather Stations

Elev 643 ft 29.71 °N, 98.05 °W | Updated 1 hour ago

Overcast
Overcast
90 °F
Feels Like 95 °F
N
8
Wind Variable Wind from NE

Today
High -- | Low -- °F
--% Chance of Precip.
Yesterday
High -- | Low -- °F
Precip. -- in
7:17 AM 7:36 PM
Last Quarter, 43% visible
Pressure 30.00 in
Visibility 10.0 miles
Clouds Mostly Cloudy 4100 ft
Heat Index 95 °F
Dew Point 70 °F
Humidity 52%
Rainfall 0.00 in
Snow Depth Not available.
UV 5 out of 12
Pollen 9.80 out of 12
Ozone Good
PM2.5 Good
Flu Activity Not available.
METAR KBAZ 161751Z 05007KT 10SM BKN041 32/21 A3003 RMK AO2 SLP158 T03220211 10344 20233 58018

More Conditions Fewer Conditions

Pressure 30.00 in
Visibility 10.0 miles
Clouds Mostly Cloudy 4100 ft
Heat Index 95 °F
Dew Point 70 °F
Humidity 52%
Rainfall 0.00 in
Snow Depth Not available.
UV 5 out of 12
Pollen 9.80 out of 12
Ozone Good
PM2.5 Good
Flu Activity Not available.
METAR KBAZ 161751Z 05007KT 10SM BKN041 32/21 A3003 RMK AO2 SLP158 T03220211 10344 20233 58018

More Conditions Fewer Conditions

10-Day Weather Forecast

Almanac

Astronomy

Sep. 16, 2014 Rise Set
Actual Time 7:17 AM CDT 7:36 PM CDT
Civil Twilight 6:53 AM CDT 7:59 PM CDT
Nautical Twilight 6:25 AM CDT 8:27 PM CDT
Astronomical Twilight 5:57 AM CDT 8:56 PM CDT
Moon 12:47 AM CDT 2:42 PM CDT
Length of Visible Light 13h 06m
Length of Day
12h 18m
Tomorrow will be 1m 47s shorter.
Last Quarter, 43% of the Moon is Illuminated
Today
Last Quarter
Sep 24
New
Oct 1
First Quarter
Oct 8
Full
Oct 15
Last Quarter

Today's Extremes

State Highs State Lows

Community

WunderPhotos

Upload Photos

1,753,860 photos uploaded!

Nearby

Air Quality

  Air Quality AQ Index Pollutant
Yesterday Moderate
PM2.5
Yesterday Good
OZONE
Current Good
OZONE
Current Good
PM2.5
Tuesday Good
OZONE
Tuesday Good
PM10
Wednesday Good
OZONE
Wednesday Good
PM10
Thursday Good
OZONE
Thursday Good
PM10
Friday Good
PM10
Friday Good
OZONE

Snow Depth

Station Depth Elevation
No new snow has been reported.

Earthquake Activity

City Distance Mag. Time & Date
No recent earthquake activity has been reported nearby.
Minimum magnitude displayed is 2.5.

Coastal Water Temperatures

Place Temperature
No Stations Reporting

Nearby Weather Stations